Time;durP1;ratioP1;P1;durP2;ratioP2;P2;SDS_P1;SDS_P2;PMS_P1;PMS_P2;Temp;Humidity;BMP_temperature;BMP_pressure;BME280_temperature;BME280_humidity;BME280_pressure;Samples;Min_cycle;Max_cycle;Signal;HPM_P1;HPM_P2
2023/01/11 00:00:42;;;;;;;6.27;4.40;;;;;;;;;;5094404;28;20451;-71
2023/01/11 00:03:09;;;;;;;4.63;3.90;;;;;;;;;;5094156;28;20451;-71
2023/01/11 00:05:41;;;;;;;10.53;5.20;;;;;;;;;;5093549;28;20447;-71
2023/01/11 00:08:08;;;;;;;11.97;6.47;;;;;;;;;;5094110;28;20471;-71
2023/01/11 00:10:36;;;;;;;14.00;6.50;;;;;;;;;;5094230;28;20446;-71
2023/01/11 00:13:03;;;;;;;8.60;6.00;;;;;;;;;;5093895;28;20458;-71
2023/01/11 00:15:30;;;;;;;9.50;4.93;;;;;;;;;;5093258;28;20508;-71
2023/01/11 00:17:57;;;;;;;13.63;5.70;;;;;;;;;;5093803;28;20479;-71
2023/01/11 00:20:25;;;;;;;12.57;6.13;;;;;;;;;;5093822;28;20443;-71
2023/01/11 00:22:53;;;;;;;15.40;7.40;;;;;;;;;;5093896;28;20450;-71
2023/01/11 00:25:20;;;;;;;13.00;7.30;;;;;;;;;;5093217;28;20931;-71
2023/01/11 00:27:48;;;;;;;8.20;4.80;;;;;;;;;;5093608;28;20454;-71
2023/01/11 00:30:15;;;;;;;8.70;5.70;;;;;;;;;;5091825;28;20451;-71
2023/01/11 00:32:42;;;;;;;8.23;4.40;;;;;;;;;;5093489;28;20451;-71
2023/01/11 00:35:10;;;;;;;4.90;4.23;;;;;;;;;;5093005;28;20955;-70
2023/01/11 00:37:37;;;;;;;7.87;4.37;;;;;;;;;;5093474;28;20446;-70
2023/01/11 00:40:06;;;;;;;7.07;4.07;;;;;;;;;;5093563;28;20819;-71
2023/01/11 00:48:14;;;;;;;5.40;3.77;;;;;;;;;;5086338;28;21010;-70
2023/01/11 00:50:41;;;;;;;5.73;3.90;;;;;;;;;;5093347;28;20451;-70
2023/01/11 00:53:09;;;;;;;9.40;3.77;;;;;;;;;;5093552;28;20963;-71
2023/01/11 00:55:38;;;;;;;10.37;4.60;;;;;;;;;;5092389;28;20485;-71
2023/01/11 00:58:05;;;;;;;4.40;3.30;;;;;;;;;;5092952;28;20494;-71
2023/01/11 01:00:32;;;;;;;4.57;3.30;;;;;;;;;;5093232;28;20455;-71
2023/01/11 01:02:59;;;;;;;8.37;3.63;;;;;;;;;;5093155;28;20477;-71
2023/01/11 01:05:26;;;;;;;7.37;3.87;;;;;;;;;;5091970;28;20470;-71
2023/01/11 01:07:53;;;;;;;5.83;3.80;;;;;;;;;;5092844;28;20475;-71
2023/01/11 01:10:21;;;;;;;8.53;3.67;;;;;;;;;;5093014;28;20525;-71
2023/01/11 01:15:34;;;;;;;3.40;3.10;;;;;;;;;;5092653;28;20477;-71
2023/01/11 01:18:02;;;;;;;5.07;4.00;;;;;;;;;;5092863;28;20471;-71
2023/01/11 01:20:29;;;;;;;4.27;3.63;;;;;;;;;;5092978;28;20482;-71
2023/01/11 01:22:56;;;;;;;6.23;2.97;;;;;;;;;;5092807;28;20458;-71
2023/01/11 01:25:23;;;;;;;5.93;3.03;;;;;;;;;;5092555;28;20969;-71
2023/01/11 01:27:51;;;;;;;5.43;3.43;;;;;;;;;;5092600;28;20458;-71
2023/01/11 01:30:19;;;;;;;8.43;3.17;;;;;;;;;;5092033;28;20450;-71
2023/01/11 01:32:46;;;;;;;8.20;3.43;;;;;;;;;;5092793;28;20469;-71
2023/01/11 01:35:13;;;;;;;5.13;2.90;;;;;;;;;;5092398;28;20454;-71
2023/01/11 01:37:40;;;;;;;4.87;2.80;;;;;;;;;;5092302;28;20454;-71
2023/01/11 01:40:08;;;;;;;3.30;3.00;;;;;;;;;;5092224;28;20451;-71
2023/01/11 01:42:35;;;;;;;5.43;3.00;;;;;;;;;;5091747;28;20467;-71
2023/01/11 01:45:05;;;;;;;3.67;2.70;;;;;;;;;;5096014;28;20922;-71
2023/01/11 01:47:35;;;;;;;5.80;2.60;;;;;;;;;;5095518;28;20446;-71
2023/01/11 01:50:03;;;;;;;3.30;3.00;;;;;;;;;;5096618;28;20460;-71
2023/01/11 01:52:32;;;;;;;3.80;2.60;;;;;;;;;;5096943;28;20454;-71
2023/01/11 01:55:00;;;;;;;2.87;2.27;;;;;;;;;;5095985;28;20465;-71
2023/01/11 01:57:30;;;;;;;7.70;2.80;;;;;;;;;;5096708;28;20482;-71
2023/01/11 01:59:58;;;;;;;3.60;2.10;;;;;;;;;;5096515;28;20831;-71
2023/01/11 02:02:27;;;;;;;5.60;2.00;;;;;;;;;;5096677;28;20454;-70
2023/01/11 02:04:55;;;;;;;4.83;2.83;;;;;;;;;;5096110;28;20457;-70
2023/01/11 02:07:25;;;;;;;4.37;2.70;;;;;;;;;;5096682;28;20454;-70
2023/01/11 02:09:56;;;;;;;9.37;5.13;;;;;;;;;;5096857;28;20473;-71
2023/01/11 02:12:25;;;;;;;16.23;9.97;;;;;;;;;;5096772;28;20445;-70
2023/01/11 02:14:53;;;;;;;12.33;7.10;;;;;;;;;;5096033;28;20487;-71
2023/01/11 02:17:20;;;;;;;6.57;3.67;;;;;;;;;;5096651;28;20501;-71
2023/01/11 02:19:54;;;;;;;4.90;2.77;;;;;;;;;;5096685;28;20478;-71
2023/01/11 02:22:39;;;;;;;4.80;2.30;;;;;;;;;;5096623;28;20934;-71
2023/01/11 02:25:32;;;;;;;3.40;2.47;;;;;;;;;;5085707;28;20989;-71
2023/01/11 02:28:06;;;;;;;4.00;2.43;;;;;;;;;;5096046;28;20485;-71
2023/01/11 02:30:35;;;;;;;2.83;2.20;;;;;;;;;;5094525;28;20914;-71
2023/01/11 02:33:09;;;;;;;4.73;2.00;;;;;;;;;;5096152;28;20431;-71
2023/01/11 02:35:39;;;;;;;2.73;2.43;;;;;;;;;;5095793;28;20825;-71
2023/01/11 02:38:11;;;;;;;3.20;2.17;;;;;;;;;;5096669;28;20462;-71
2023/01/11 02:40:41;;;;;;;6.27;4.30;;;;;;;;;;5096354;28;20803;-70
2023/01/11 02:46:00;;;;;;;2.33;1.90;;;;;;;;;;5095901;28;20790;-71
2023/01/11 02:48:32;;;;;;;2.10;1.90;;;;;;;;;;5095748;28;20478;-71
2023/01/11 02:51:02;;;;;;;3.50;1.97;;;;;;;;;;5096047;28;20837;-71
2023/01/11 02:53:32;;;;;;;4.20;3.43;;;;;;;;;;5095605;28;20438;-71
2023/01/11 02:56:02;;;;;;;4.60;2.63;;;;;;;;;;5095851;28;20474;-71
2023/01/11 02:58:32;;;;;;;7.63;2.87;;;;;;;;;;5095360;28;20478;-72
2023/01/11 03:01:00;;;;;;;5.97;2.77;;;;;;;;;;5095742;28;20431;-71
2023/01/11 03:03:28;;;;;;;2.90;1.93;;;;;;;;;;5095663;28;20455;-73
2023/01/11 03:05:57;;;;;;;6.20;2.10;;;;;;;;;;5095668;28;20462;-71
2023/01/11 03:08:40;;;;;;;2.90;1.93;;;;;;;;;;5095622;28;20471;-71
2023/01/11 03:11:10;;;;;;;2.40;1.90;;;;;;;;;;5093156;28;20956;-71
2023/01/11 03:13:49;;;;;;;2.97;1.83;;;;;;;;;;5095171;28;20431;-71
2023/01/11 03:16:26;;;;;;;2.87;2.10;;;;;;;;;;5095575;28;20467;-71
2023/01/11 03:18:55;;;;;;;5.90;1.70;;;;;;;;;;5095454;28;20474;-71
2023/01/11 03:21:27;;;;;;;3.30;1.83;;;;;;;;;;5095108;28;20453;-71
2023/01/11 03:23:57;;;;;;;2.60;1.80;;;;;;;;;;5094569;28;20438;-71
2023/01/11 03:26:29;;;;;;;2.77;1.93;;;;;;;;;;5095547;28;20430;-71
2023/01/11 03:29:03;;;;;;;7.57;4.50;;;;;;;;;;5095229;28;20869;-70
2023/01/11 03:31:33;;;;;;;4.03;2.40;;;;;;;;;;5093331;28;20442;-71
2023/01/11 03:34:05;;;;;;;3.83;2.90;;;;;;;;;;5094270;28;20931;-71
2023/01/11 03:36:35;;;;;;;6.50;4.43;;;;;;;;;;5094677;28;20477;-71
2023/01/11 03:39:06;;;;;;;4.77;3.63;;;;;;;;;;5095232;28;20925;-71
2023/01/11 03:41:35;;;;;;;5.50;4.83;;;;;;;;;;5095049;28;20935;-74
2023/01/11 03:44:06;;;;;;;5.40;3.90;;;;;;;;;;5093987;28;20824;-74
2023/01/11 03:46:35;;;;;;;8.30;3.83;;;;;;;;;;5094635;28;20446;-74
2023/01/11 03:49:05;;;;;;;5.90;3.60;;;;;;;;;;5094354;28;20569;-74
2023/01/11 03:51:35;;;;;;;10.33;5.40;;;;;;;;;;5094557;28;20913;-74
2023/01/11 03:54:06;;;;;;;13.70;4.33;;;;;;;;;;5093845;28;20935;-74
2023/01/11 03:56:37;;;;;;;7.47;4.17;;;;;;;;;;5094434;28;20487;-74
2023/01/11 03:59:06;;;;;;;12.20;5.13;;;;;;;;;;5094113;28;20482;-74
2023/01/11 04:01:33;;;;;;;7.10;3.60;;;;;;;;;;5094264;28;20455;-74
2023/01/11 04:04:00;;;;;;;3.60;3.10;;;;;;;;;;5093694;28;20447;-74
2023/01/11 04:06:27;;;;;;;5.93;2.80;;;;;;;;;;5093641;28;20451;-74
2023/01/11 04:08:54;;;;;;;6.67;3.27;;;;;;;;;;5094196;28;20827;-74
2023/01/11 04:11:21;;;;;;;2.83;2.53;;;;;;;;;;5093768;28;20450;-74
2023/01/11 04:13:48;;;;;;;7.07;3.53;;;;;;;;;;5093426;28;20521;-74
2023/01/11 04:16:17;;;;;;;4.47;2.90;;;;;;;;;;5094149;28;20451;-74
2023/01/11 04:18:44;;;;;;;6.70;4.53;;;;;;;;;;5093843;28;20471;-74
2023/01/11 04:21:11;;;;;;;6.33;4.30;;;;;;;;;;5093930;28;20455;-74
2023/01/11 04:23:38;;;;;;;6.57;3.10;;;;;;;;;;5093219;28;20451;-74
2023/01/11 04:26:05;;;;;;;4.07;2.60;;;;;;;;;;5093479;28;20455;-74
2023/01/11 04:28:32;;;;;;;5.07;2.77;;;;;;;;;;5093668;28;20531;-74
2023/01/11 04:31:00;;;;;;;3.07;2.57;;;;;;;;;;5091262;28;20458;-73
2023/01/11 04:33:28;;;;;;;4.37;2.70;;;;;;;;;;5093674;28;20451;-73
2023/01/11 04:35:55;;;;;;;6.57;4.07;;;;;;;;;;5093551;28;20450;-73
2023/01/11 04:38:23;;;;;;;4.13;3.37;;;;;;;;;;5093474;28;21031;-73
2023/01/11 04:42:17;;;;;;;15.63;4.87;;;;;;;;;;5093409;28;20545;-73
2023/01/11 04:43:37;;;;;;;5.40;2.70;;;;;;;;;;5092673;28;20493;-73
2023/01/11 04:46:05;;;;;;;5.37;3.50;;;;;;;;;;5093305;28;20446;-73
2023/01/11 04:48:34;;;;;;;4.60;2.73;;;;;;;;;;5093400;28;20532;-74
2023/01/11 04:51:01;;;;;;;6.03;2.77;;;;;;;;;;5093178;28;20829;-73
2023/01/11 04:53:28;;;;;;;4.33;2.17;;;;;;;;;;5092991;28;20942;-72
2023/01/11 04:55:55;;;;;;;2.67;2.30;;;;;;;;;;5093083;28;20455;-73
2023/01/11 04:58:22;;;;;;;2.73;2.10;;;;;;;;;;5093099;28;20497;-74
2023/01/11 05:00:49;;;;;;;5.97;2.30;;;;;;;;;;5093397;28;20450;-73
2023/01/11 05:03:16;;;;;;;3.30;2.23;;;;;;;;;;5093259;28;20446;-73
2023/01/11 05:05:44;;;;;;;7.97;4.60;;;;;;;;;;5092571;28;20450;-73
2023/01/11 05:08:11;;;;;;;4.87;3.17;;;;;;;;;;5093092;28;20471;-73
2023/01/11 05:10:38;;;;;;;4.67;2.53;;;;;;;;;;5093032;28;20836;-73
2023/01/11 05:13:05;;;;;;;3.50;2.77;;;;;;;;;;5093149;28;20451;-74
2023/01/11 05:15:35;;;;;;;3.50;2.10;;;;;;;;;;5092256;28;20455;-73
2023/01/11 05:18:02;;;;;;;5.13;2.77;;;;;;;;;;5091703;28;20494;-73
2023/01/11 05:20:29;;;;;;;3.07;2.03;;;;;;;;;;5092974;28;20455;-73
2023/01/11 05:22:57;;;;;;;3.77;1.87;;;;;;;;;;5092952;28;20462;-73
2023/01/11 05:25:24;;;;;;;2.90;2.23;;;;;;;;;;5092230;28;20447;-73
2023/01/11 05:27:51;;;;;;;2.57;2.30;;;;;;;;;;5092953;28;20451;-73
2023/01/11 05:30:18;;;;;;;3.27;2.63;;;;;;;;;;5090563;28;20462;-73
2023/01/11 05:32:46;;;;;;;6.10;3.63;;;;;;;;;;5092745;28;20458;-73
2023/01/11 05:35:13;;;;;;;9.97;4.37;;;;;;;;;;5092104;28;20450;-73
2023/01/11 05:37:40;;;;;;;7.03;4.53;;;;;;;;;;5092416;28;20849;-73
2023/01/11 05:40:11;;;;;;;7.97;3.90;;;;;;;;;;5092997;28;20443;-74
2023/01/11 05:42:39;;;;;;;4.30;2.90;;;;;;;;;;5092614;28;20804;-73
2023/01/11 05:47:53;;;;;;;4.13;2.93;;;;;;;;;;5092612;28;20488;-73
2023/01/11 05:50:20;;;;;;;5.80;3.47;;;;;;;;;;5092741;28;20455;-74
2023/01/11 05:52:47;;;;;;;4.20;3.20;;;;;;;;;;5092604;28;20829;-73
2023/01/11 05:55:16;;;;;;;3.63;2.20;;;;;;;;;;5092092;28;20454;-74
2023/01/11 05:57:43;;;;;;;5.30;2.80;;;;;;;;;;5092303;28;20496;-73
2023/01/11 06:00:11;;;;;;;4.27;2.57;;;;;;;;;;5092534;28;20447;-73
2023/01/11 06:02:38;;;;;;;4.10;2.77;;;;;;;;;;5091842;28;20474;-73
2023/01/11 06:05:05;;;;;;;2.57;2.27;;;;;;;;;;5091999;28;20451;-73
2023/01/11 06:07:33;;;;;;;2.97;2.20;;;;;;;;;;5092400;28;20470;-73
2023/01/11 06:10:00;;;;;;;4.33;3.47;;;;;;;;;;5092197;28;20447;-73
2023/01/11 06:12:28;;;;;;;5.40;3.23;;;;;;;;;;5092441;28;20554;-73
2023/01/11 06:14:55;;;;;;;4.73;3.37;;;;;;;;;;5092021;28;20450;-73
2023/01/11 06:17:22;;;;;;;3.67;3.10;;;;;;;;;;5092727;28;20870;-73
2023/01/11 06:19:49;;;;;;;4.33;2.43;;;;;;;;;;5092347;28;20840;-73
2023/01/11 06:22:16;;;;;;;3.27;2.83;;;;;;;;;;5092737;28;20457;-73
2023/01/11 06:24:43;;;;;;;4.80;3.60;;;;;;;;;;5091684;28;20443;-73
2023/01/11 06:27:11;;;;;;;4.80;3.60;;;;;;;;;;5092068;28;20458;-73
2023/01/11 06:29:39;;;;;;;7.87;4.77;;;;;;;;;;5093012;28;20876;-73
2023/01/11 06:32:07;;;;;;;6.73;4.47;;;;;;;;;;5096160;28;20824;-73
2023/01/11 06:34:34;;;;;;;4.30;3.30;;;;;;;;;;5095623;28;20553;-74
2023/01/11 06:37:02;;;;;;;7.43;4.57;;;;;;;;;;5095754;28;20446;-73
2023/01/11 06:39:29;;;;;;;5.93;3.90;;;;;;;;;;5095635;28;20952;-73
2023/01/11 06:41:56;;;;;;;7.07;4.83;;;;;;;;;;5095718;28;20792;-72
2023/01/11 06:44:23;;;;;;;6.50;4.20;;;;;;;;;;5095223;28;20467;-73
2023/01/11 06:46:51;;;;;;;4.20;3.80;;;;;;;;;;5095625;28;20454;-73
2023/01/11 06:49:18;;;;;;;5.13;3.33;;;;;;;;;;5095842;28;20466;-73
2023/01/11 06:51:45;;;;;;;11.50;5.97;;;;;;;;;;5095579;28;20450;-73
2023/01/11 06:54:12;;;;;;;10.77;4.93;;;;;;;;;;5095304;28;20951;-73
2023/01/11 06:56:40;;;;;;;8.53;3.37;;;;;;;;;;5095647;28;20817;-73
2023/01/11 06:59:07;;;;;;;7.40;3.70;;;;;;;;;;5095295;28;20486;-73
2023/01/11 07:01:34;;;;;;;6.07;3.67;;;;;;;;;;5095552;28;20450;-73
2023/01/11 07:04:02;;;;;;;5.10;3.30;;;;;;;;;;5094864;28;20442;-72
2023/01/11 07:06:30;;;;;;;4.70;3.20;;;;;;;;;;5095383;28;20455;-73
2023/01/11 07:08:58;;;;;;;26.63;9.30;;;;;;;;;;5095293;28;20502;-73
2023/01/11 07:11:25;;;;;;;24.67;11.20;;;;;;;;;;5095417;28;20469;-73
2023/01/11 07:13:52;;;;;;;37.77;17.47;;;;;;;;;;5095030;28;20457;-73
2023/01/11 07:16:19;;;;;;;66.97;24.67;;;;;;;;;;5095249;28;20443;-73
2023/01/11 07:18:46;;;;;;;100.67;31.77;;;;;;;;;;5094855;28;21001;-72
2023/01/11 07:21:15;;;;;;;72.63;25.83;;;;;;;;;;5095214;28;20819;-72
2023/01/11 07:23:42;;;;;;;68.47;24.73;;;;;;;;;;5094562;28;20459;-73
2023/01/11 07:26:09;;;;;;;75.90;22.70;;;;;;;;;;5090038;28;20453;-73
2023/01/11 07:28:36;;;;;;;64.80;22.33;;;;;;;;;;5074601;28;20472;-73
2023/01/11 07:31:03;;;;;;;25.53;12.07;;;;;;;;;;5072874;28;20447;-73
2023/01/11 07:33:30;;;;;;;35.17;12.90;;;;;;;;;;5074240;28;20822;-72
2023/01/11 07:35:59;;;;;;;14.20;6.50;;;;;;;;;;5074392;28;20452;-73
2023/01/11 07:38:28;;;;;;;11.63;6.53;;;;;;;;;;5074483;28;20510;-73
2023/01/11 07:40:55;;;;;;;7.10;5.30;;;;;;;;;;5073403;28;20488;-73
2023/01/11 07:43:22;;;;;;;6.17;4.10;;;;;;;;;;5074151;28;20467;-73
2023/01/11 07:45:50;;;;;;;5.80;3.57;;;;;;;;;;5073916;28;20452;-72
2023/01/11 07:48:19;;;;;;;2.70;2.37;;;;;;;;;;5074284;28;20472;-72
2023/01/11 07:50:46;;;;;;;4.43;2.90;;;;;;;;;;5074143;28;20463;-73
2023/01/11 07:53:14;;;;;;;5.87;2.13;;;;;;;;;;5074527;28;20455;-73
2023/01/11 07:55:43;;;;;;;3.23;2.70;;;;;;;;;;5073853;28;20451;-73
2023/01/11 07:58:11;;;;;;;9.43;2.53;;;;;;;;;;5073966;28;20519;-73
2023/01/11 08:00:39;;;;;;;2.67;2.00;;;;;;;;;;5074019;28;20948;-72
2023/01/11 08:03:06;;;;;;;4.60;2.87;;;;;;;;;;5074011;28;20447;-72
2023/01/11 08:05:33;;;;;;;3.30;2.90;;;;;;;;;;5073657;28;20447;-73
2023/01/11 08:08:00;;;;;;;7.00;3.40;;;;;;;;;;5073842;28;20975;-73
2023/01/11 08:10:27;;;;;;;3.23;2.70;;;;;;;;;;5073948;28;20451;-73
2023/01/11 08:15:41;;;;;;;4.83;3.23;;;;;;;;;;5073389;28;20427;-73
2023/01/11 08:18:09;;;;;;;5.17;2.53;;;;;;;;;;5073563;28;20566;-73
2023/01/11 08:20:36;;;;;;;4.90;3.10;;;;;;;;;;5073672;28;20454;-73
2023/01/11 08:23:04;;;;;;;3.83;2.10;;;;;;;;;;5073478;28;20544;-73
2023/01/11 08:25:31;;;;;;;3.47;2.50;;;;;;;;;;5072545;28;20490;-73
2023/01/11 08:28:01;;;;;;;3.40;2.33;;;;;;;;;;5092894;28;20983;-73
2023/01/11 08:30:28;;;;;;;2.33;2.03;;;;;;;;;;5091248;28;20932;-73
2023/01/11 08:32:56;;;;;;;5.33;2.50;;;;;;;;;;5093336;28;20474;-73
2023/01/11 08:35:23;;;;;;;5.00;2.50;;;;;;;;;;5093029;28;20876;-73
2023/01/11 08:37:50;;;;;;;11.40;7.20;;;;;;;;;;5093106;28;20486;-73
2023/01/11 08:40:17;;;;;;;5.87;4.70;;;;;;;;;;5093004;28;20455;-73
2023/01/11 08:42:45;;;;;;;6.47;2.87;;;;;;;;;;5093229;28;20485;-73
2023/01/11 08:45:13;;;;;;;3.90;2.73;;;;;;;;;;5092795;28;20451;-73
2023/01/11 08:47:40;;;;;;;5.93;3.07;;;;;;;;;;5093225;28;20817;-73
2023/01/11 08:50:08;;;;;;;3.80;2.37;;;;;;;;;;5092826;28;20799;-73
2023/01/11 08:52:35;;;;;;;4.33;3.07;;;;;;;;;;5092850;28;20461;-73
2023/01/11 08:55:06;;;;;;;16.47;4.20;;;;;;;;;;5092387;28;20465;-73
2023/01/11 08:57:34;;;;;;;13.63;5.63;;;;;;;;;;5093070;28;20502;-73
2023/01/11 09:00:01;;;;;;;14.10;6.93;;;;;;;;;;5092579;28;20450;-73
2023/01/11 09:02:29;;;;;;;11.13;5.10;;;;;;;;;;5093153;28;20931;-73
2023/01/11 09:04:56;;;;;;;15.83;7.83;;;;;;;;;;5092325;28;20458;-73
2023/01/11 09:07:23;;;;;;;10.03;6.07;;;;;;;;;;5092991;28;20461;-73
2023/01/11 09:09:51;;;;;;;6.40;3.17;;;;;;;;;;5092653;28;20462;-73
2023/01/11 09:12:18;;;;;;;15.20;5.43;;;;;;;;;;5092824;28;20462;-73
2023/01/11 09:14:45;;;;;;;4.87;3.63;;;;;;;;;;5092436;28;20451;-73
2023/01/11 09:17:12;;;;;;;10.37;4.97;;;;;;;;;;5092786;28;20455;-73
2023/01/11 09:19:40;;;;;;;9.37;7.30;;;;;;;;;;5092658;28;20994;-73
2023/01/11 09:22:07;;;;;;;5.73;3.80;;;;;;;;;;5092558;28;20502;-73
2023/01/11 09:24:34;;;;;;;3.87;3.03;;;;;;;;;;5092577;28;20462;-73
2023/01/11 09:27:03;;;;;;;4.90;3.43;;;;;;;;;;5092487;28;20490;-73
2023/01/11 09:29:30;;;;;;;5.60;3.30;;;;;;;;;;5091066;28;20470;-73
2023/01/11 09:31:57;;;;;;;5.50;3.00;;;;;;;;;;5084821;28;20983;-73
2023/01/11 09:34:26;;;;;;;4.53;2.77;;;;;;;;;;5074600;28;20458;-73
2023/01/11 09:36:55;;;;;;;2.40;2.20;;;;;;;;;;5070148;28;20488;-73
2023/01/11 09:39:25;;;;;;;3.80;2.33;;;;;;;;;;5070400;28;20492;-73
2023/01/11 09:42:23;;;;;;;5.00;2.80;;;;;;;;;;5070174;28;20462;-73
2023/01/11 09:44:51;;;;;;;6.03;2.60;;;;;;;;;;5080850;28;20500;-73
2023/01/11 09:47:25;;;;;;;4.30;2.87;;;;;;;;;;5090993;28;20454;-73
2023/01/11 09:49:55;;;;;;;8.57;3.73;;;;;;;;;;5090217;28;20466;-73
2023/01/11 09:52:27;;;;;;;8.50;4.10;;;;;;;;;;5091226;28;20508;-73
2023/01/11 09:54:54;;;;;;;7.60;3.07;;;;;;;;;;5090603;28;20455;-73
2023/01/11 09:57:26;;;;;;;5.53;3.00;;;;;;;;;;5090508;28;20443;-73
2023/01/11 09:59:57;;;;;;;6.57;3.30;;;;;;;;;;5090554;28;21061;-73
2023/01/11 10:02:34;;;;;;;3.80;2.70;;;;;;;;;;5091280;28;20962;-73
2023/01/11 10:05:17;;;;;;;4.33;2.63;;;;;;;;;;5093242;28;20466;-73
2023/01/11 10:07:53;;;;;;;6.10;3.03;;;;;;;;;;5094460;28;20515;-73
2023/01/11 10:10:27;;;;;;;4.50;2.60;;;;;;;;;;5094336;28;20469;-73
2023/01/11 10:12:59;;;;;;;4.00;2.10;;;;;;;;;;5094638;28;20446;-73
2023/01/11 10:15:31;;;;;;;3.90;2.40;;;;;;;;;;5094614;28;20469;-73
2023/01/11 10:18:05;;;;;;;6.00;2.30;;;;;;;;;;5093277;28;21081;-73
2023/01/11 10:20:38;;;;;;;3.20;2.33;;;;;;;;;;5094409;28;20454;-73
2023/01/11 10:23:11;;;;;;;5.30;2.43;;;;;;;;;;5094424;28;20469;-73
2023/01/11 10:25:46;;;;;;;8.10;3.30;;;;;;;;;;5093723;28;20803;-73
2023/01/11 10:28:21;;;;;;;3.97;2.60;;;;;;;;;;5094612;28;20506;-74
2023/01/11 10:31:05;;;;;;;2.57;2.00;;;;;;;;;;5092901;28;20464;-73
2023/01/11 10:33:48;;;;;;;2.90;2.00;;;;;;;;;;5093716;28;20947;-73
2023/01/11 10:36:40;;;;;;;2.83;1.87;;;;;;;;;;5093892;28;20460;-74
2023/01/11 10:39:26;;;;;;;3.73;1.93;;;;;;;;;;5093852;28;20864;-74
2023/01/11 10:41:59;;;;;;;2.60;2.10;;;;;;;;;;5093415;28;20982;-74
2023/01/11 10:44:31;;;;;;;3.17;1.50;;;;;;;;;;5093587;28;21039;-74
2023/01/11 10:46:59;;;;;;;2.83;1.60;;;;;;;;;;5093381;28;20458;-74
2023/01/11 10:49:32;;;;;;;1.70;1.37;;;;;;;;;;5093387;28;20531;-74
2023/01/11 10:52:04;;;;;;;5.23;1.50;;;;;;;;;;5091880;28;20474;-74
2023/01/11 10:54:36;;;;;;;2.27;1.53;;;;;;;;;;5093179;28;20482;-74
2023/01/11 10:57:10;;;;;;;3.83;2.10;;;;;;;;;;5093810;28;20502;-74
2023/01/11 10:59:45;;;;;;;5.00;2.50;;;;;;;;;;5093953;28;21014;-74
2023/01/11 11:02:20;;;;;;;3.50;2.00;;;;;;;;;;5094060;28;20458;-74
2023/01/11 11:04:55;;;;;;;2.57;1.80;;;;;;;;;;5091847;28;20457;-74
2023/01/11 11:07:24;;;;;;;4.33;2.77;;;;;;;;;;5095307;28;20450;-74
2023/01/11 11:09:59;;;;;;;3.40;2.50;;;;;;;;;;5093793;28;20463;-74
2023/01/11 11:12:29;;;;;;;3.30;2.17;;;;;;;;;;5094929;28;20449;-74
2023/01/11 11:15:00;;;;;;;3.00;2.03;;;;;;;;;;5094547;28;20831;-74
2023/01/11 11:17:31;;;;;;;2.23;1.90;;;;;;;;;;5095562;28;20920;-74
2023/01/11 11:19:58;;;;;;;2.80;2.43;;;;;;;;;;5094732;28;20498;-74
2023/01/11 11:22:25;;;;;;;3.07;1.87;;;;;;;;;;5095026;28;20458;-74
2023/01/11 11:24:59;;;;;;;3.30;2.10;;;;;;;;;;5094410;28;20457;-74
2023/01/11 11:27:27;;;;;;;3.50;2.23;;;;;;;;;;5095080;28;20815;-74
2023/01/11 11:29:55;;;;;;;2.97;2.23;;;;;;;;;;5093045;28;20463;-75
2023/01/11 11:32:27;;;;;;;4.07;2.30;;;;;;;;;;5095019;28;20450;-74
2023/01/11 11:34:54;;;;;;;8.03;2.30;;;;;;;;;;5094362;28;20955;-74
2023/01/11 11:37:23;;;;;;;7.27;4.87;;;;;;;;;;5094652;28;20835;-74
2023/01/11 11:39:51;;;;;;;3.27;2.20;;;;;;;;;;5094660;28;20525;-74
2023/01/11 11:42:21;;;;;;;2.70;1.77;;;;;;;;;;5094653;28;20465;-74
2023/01/11 11:45:03;;;;;;;4.03;2.57;;;;;;;;;;5094260;28;20946;-74
2023/01/11 11:47:30;;;;;;;5.70;3.80;;;;;;;;;;5094749;28;20458;-74
2023/01/11 11:50:15;;;;;;;4.70;2.90;;;;;;;;;;5094300;28;20471;-74
2023/01/11 11:52:42;;;;;;;4.20;2.40;;;;;;;;;;5094439;28;20950;-74
2023/01/11 11:55:10;;;;;;;2.37;2.10;;;;;;;;;;5094051;28;20442;-74
2023/01/11 11:57:42;;;;;;;8.70;4.70;;;;;;;;;;5094455;28;20454;-74
2023/01/11 12:00:20;;;;;;;8.10;5.47;;;;;;;;;;5094316;28;20486;-74
2023/01/11 12:02:50;;;;;;;6.97;4.13;;;;;;;;;;5094250;28;20461;-74
2023/01/11 12:05:17;;;;;;;8.63;4.53;;;;;;;;;;5094002;28;20454;-74
2023/01/11 12:07:45;;;;;;;7.37;4.07;;;;;;;;;;5094231;28;20450;-74
2023/01/11 12:10:13;;;;;;;12.33;6.00;;;;;;;;;;5094131;28;20940;-74
2023/01/11 12:12:51;;;;;;;6.70;5.47;;;;;;;;;;5094311;28;20455;-74
2023/01/11 12:15:20;;;;;;;6.17;4.73;;;;;;;;;;5093805;28;20812;-75
2023/01/11 12:17:48;;;;;;;12.77;6.40;;;;;;;;;;5093942;28;20455;-73
2023/01/11 12:20:28;;;;;;;84.27;40.67;;;;;;;;;;5091726;28;20493;-74
2023/01/11 12:23:09;;;;;;;34.97;16.10;;;;;;;;;;5093805;28;20454;-75
2023/01/11 12:25:37;;;;;;;13.33;8.83;;;;;;;;;;5092912;28;20447;-74
2023/01/11 12:28:09;;;;;;;5.73;4.33;;;;;;;;;;5093317;28;20482;-74
2023/01/11 12:30:43;;;;;;;11.50;7.40;;;;;;;;;;5092425;28;20958;-74
2023/01/11 12:33:28;;;;;;;7.63;5.13;;;;;;;;;;5093843;28;20840;-74
2023/01/11 12:36:00;;;;;;;4.87;4.30;;;;;;;;;;5092798;28;20450;-74
2023/01/11 12:38:31;;;;;;;6.10;3.93;;;;;;;;;;5093562;28;20457;-74
2023/01/11 12:41:05;;;;;;;7.63;4.73;;;;;;;;;;5093370;28;20494;-74
2023/01/11 12:43:50;;;;;;;7.70;4.30;;;;;;;;;;5093175;28;20547;-74
2023/01/11 12:46:26;;;;;;;7.43;4.53;;;;;;;;;;5093195;28;20487;-74
2023/01/11 12:49:00;;;;;;;4.27;2.87;;;;;;;;;;5093315;28;20475;-74
2023/01/11 12:51:37;;;;;;;4.00;2.93;;;;;;;;;;5093544;28;20965;-74
2023/01/11 12:54:11;;;;;;;5.20;3.73;;;;;;;;;;5092814;28;20450;-74
2023/01/11 12:56:44;;;;;;;7.60;4.00;;;;;;;;;;5093239;28;20458;-74
2023/01/11 12:59:17;;;;;;;5.73;3.40;;;;;;;;;;5093249;28;20502;-74
2023/01/11 13:01:50;;;;;;;7.50;4.03;;;;;;;;;;5093512;28;20970;-74
2023/01/11 13:04:35;;;;;;;6.17;3.90;;;;;;;;;;5092947;28;20473;-71
2023/01/11 13:07:10;;;;;;;5.53;3.20;;;;;;;;;;5092949;28;20443;-71
2023/01/11 13:09:46;;;;;;;5.97;4.73;;;;;;;;;;5093087;28;20834;-71
2023/01/11 13:12:17;;;;;;;9.83;5.17;;;;;;;;;;5093371;28;20446;-71
2023/01/11 13:14:55;;;;;;;13.73;4.47;;;;;;;;;;5092648;28;20829;-71
2023/01/11 13:17:29;;;;;;;5.53;3.80;;;;;;;;;;5093237;28;20947;-71
2023/01/11 13:20:02;;;;;;;4.27;3.30;;;;;;;;;;5092793;28;20989;-71
2023/01/11 13:22:30;;;;;;;5.30;3.40;;;;;;;;;;5093429;28;20488;-71
2023/01/11 13:24:58;;;;;;;5.80;4.20;;;;;;;;;;5090168;28;20451;-71
2023/01/11 13:27:26;;;;;;;7.73;4.33;;;;;;;;;;5092885;28;20825;-71
2023/01/11 13:29:55;;;;;;;7.80;4.00;;;;;;;;;;5090636;28;20478;-71
2023/01/11 13:32:23;;;;;;;11.20;4.87;;;;;;;;;;5092803;28;20453;-71
2023/01/11 13:34:53;;;;;;;9.77;5.30;;;;;;;;;;5092241;28;20478;-71
2023/01/11 13:37:24;;;;;;;11.37;5.47;;;;;;;;;;5092659;28;20454;-71
2023/01/11 13:39:54;;;;;;;5.37;4.47;;;;;;;;;;5095747;28;20486;-71
2023/01/11 13:42:23;;;;;;;9.10;6.10;;;;;;;;;;5096916;28;20454;-71
2023/01/11 13:44:52;;;;;;;10.20;3.90;;;;;;;;;;5096710;28;20828;-71
2023/01/11 13:47:21;;;;;;;10.37;7.00;;;;;;;;;;5097035;28;20916;-71
2023/01/11 13:49:52;;;;;;;10.93;6.50;;;;;;;;;;5096799;28;20467;-71
2023/01/11 13:52:23;;;;;;;11.20;5.10;;;;;;;;;;5096966;28;20476;-71
2023/01/11 13:54:54;;;;;;;13.10;6.83;;;;;;;;;;5096231;28;20446;-71
2023/01/11 13:57:25;;;;;;;12.63;5.20;;;;;;;;;;5096728;28;20458;-71
2023/01/11 13:59:55;;;;;;;7.27;4.37;;;;;;;;;;5096492;28;20517;-71
2023/01/11 14:02:24;;;;;;;9.23;5.70;;;;;;;;;;5097218;28;20450;-71
2023/01/11 14:04:54;;;;;;;13.80;7.50;;;;;;;;;;5095976;28;20447;-71
2023/01/11 14:07:28;;;;;;;11.10;6.07;;;;;;;;;;5096404;28;20443;-71
2023/01/11 14:10:01;;;;;;;15.97;7.77;;;;;;;;;;5096351;28;20466;-72
2023/01/11 14:12:32;;;;;;;12.67;6.03;;;;;;;;;;5096594;28;20458;-72
2023/01/11 14:15:15;;;;;;;6.13;3.90;;;;;;;;;;5095960;28;20943;-71
2023/01/11 14:17:56;;;;;;;6.80;4.50;;;;;;;;;;5096130;28;20454;-72
2023/01/11 14:20:25;;;;;;;8.77;5.00;;;;;;;;;;5096372;28;20490;-71
2023/01/11 14:22:58;;;;;;;7.87;5.40;;;;;;;;;;5096267;28;20463;-71
2023/01/11 14:25:28;;;;;;;9.00;6.10;;;;;;;;;;5095760;28;20446;-72
2023/01/11 14:28:04;;;;;;;7.50;5.50;;;;;;;;;;5095954;28;20485;-71
2023/01/11 14:30:37;;;;;;;7.97;5.87;;;;;;;;;;5094568;28;20449;-72
2023/01/11 14:33:16;;;;;;;7.00;3.90;;;;;;;;;;5096048;28;20969;-71
2023/01/11 14:36:10;;;;;;;4.00;3.50;;;;;;;;;;5095527;28;20931;-71
2023/01/11 14:38:47;;;;;;;6.93;4.70;;;;;;;;;;5059757;28;20462;-71
2023/01/11 14:41:29;;;;;;;10.17;4.90;;;;;;;;;;5095978;28;21013;-71
2023/01/11 14:44:12;;;;;;;8.03;3.90;;;;;;;;;;5093138;28;20462;-71
2023/01/11 14:46:58;;;;;;;6.77;5.30;;;;;;;;;;5095755;28;20473;-71
2023/01/11 14:49:34;;;;;;;10.23;7.10;;;;;;;;;;5095219;28;20473;-71
2023/01/11 14:52:02;;;;;;;14.20;7.93;;;;;;;;;;5095663;28;20450;-71
2023/01/11 14:54:32;;;;;;;14.50;9.80;;;;;;;;;;5095271;28;20458;-71
2023/01/11 14:56:59;;;;;;;10.37;7.07;;;;;;;;;;5095541;28;20470;-71
2023/01/11 14:59:34;;;;;;;11.20;7.70;;;;;;;;;;5095311;28;20473;-71
2023/01/11 15:02:13;;;;;;;8.80;6.20;;;;;;;;;;5092507;28;20461;-71
2023/01/11 15:05:04;;;;;;;13.07;8.17;;;;;;;;;;5095049;28;20446;-71
2023/01/11 15:07:35;;;;;;;13.40;6.63;;;;;;;;;;5095325;28;20957;-71
2023/01/11 15:10:07;;;;;;;9.40;6.73;;;;;;;;;;5095193;28;20455;-71
2023/01/11 15:12:35;;;;;;;7.53;4.90;;;;;;;;;;5095399;28;20823;-71
2023/01/11 15:15:03;;;;;;;11.17;7.00;;;;;;;;;;5094777;28;20451;-71